Time;durP1;ratioP1;P1;durP2;ratioP2;P2;SDS_P1;SDS_P2;PMS_P1;PMS_P2;Temp;Humidity;BMP_temperature;BMP_pressure;BME280_temperature;BME280_humidity;BME280_pressure;Samples;Min_cycle;Max_cycle;Signal;HPM_P1;HPM_P2
2022/05/17 00:03:14;;;;;;;6.80;3.88;;;;;;;;;;10431608;28;20066;-65
2022/05/17 00:08:18;;;;;;;9.47;4.00;;;;;;;;;;10440015;28;20041;-66
2022/05/17 00:13:20;;;;;;;4.55;3.85;;;;;;;;;;10448685;28;20386;-66
2022/05/17 00:18:23;;;;;;;9.15;3.85;;;;;;;;;;10398164;28;20092;-65
2022/05/17 00:23:27;;;;;;;5.15;3.38;;;;;;;;;;10407371;28;20042;-65
2022/05/17 00:28:30;;;;;;;7.65;3.53;;;;;;;;;;10397081;28;20042;-65
2022/05/17 00:33:32;;;;;;;6.28;3.72;;;;;;;;;;10422897;28;20061;-65
2022/05/17 00:38:35;;;;;;;11.70;3.92;;;;;;;;;;10479923;28;20048;-65
2022/05/17 00:49:02;;;;;;;9.68;3.45;;;;;;;;;;10477411;28;20228;-66
2022/05/17 00:54:08;;;;;;;6.65;3.88;;;;;;;;;;10437782;28;20046;-66
2022/05/17 00:59:11;;;;;;;5.53;3.78;;;;;;;;;;10472186;28;20386;-66
2022/05/17 01:04:19;;;;;;;11.05;3.90;;;;;;;;;;10452177;28;20050;-65
2022/05/17 01:09:24;;;;;;;8.23;4.03;;;;;;;;;;10412264;28;20061;-65
2022/05/17 01:19:46;;;;;;;5.05;3.78;;;;;;;;;;10409988;28;20064;-65
2022/05/17 01:24:50;;;;;;;5.63;3.85;;;;;;;;;;10455562;28;20049;-64
2022/05/17 01:29:54;;;;;;;5.38;3.65;;;;;;;;;;10435640;28;20230;-65
2022/05/17 01:34:57;;;;;;;4.40;3.10;;;;;;;;;;10401662;28;20050;-65
2022/05/17 01:40:00;;;;;;;6.50;3.13;;;;;;;;;;10419362;28;20303;-66
2022/05/17 01:45:03;;;;;;;7.93;3.28;;;;;;;;;;10443476;28;20053;-66
2022/05/17 01:50:07;;;;;;;4.63;3.08;;;;;;;;;;10437808;28;20041;-66
2022/05/17 01:55:10;;;;;;;8.00;3.15;;;;;;;;;;10456950;28;20093;-66
2022/05/17 02:00:15;;;;;;;6.13;3.55;;;;;;;;;;10415670;28;20070;-66
2022/05/17 02:05:18;;;;;;;7.45;3.65;;;;;;;;;;10420133;28;20263;-66
2022/05/17 02:10:25;;;;;;;4.60;3.15;;;;;;;;;;10439404;28;20064;-66
2022/05/17 02:15:28;;;;;;;6.25;3.38;;;;;;;;;;10420359;28;20052;-65
2022/05/17 02:20:31;;;;;;;7.03;3.65;;;;;;;;;;10415682;28;20073;-65
2022/05/17 02:25:35;;;;;;;6.90;3.15;;;;;;;;;;10398412;28;20067;-65
2022/05/17 02:30:37;;;;;;;6.30;2.88;;;;;;;;;;10456744;28;20060;-65
2022/05/17 02:35:40;;;;;;;10.32;3.50;;;;;;;;;;10437831;28;20068;-66
2022/05/17 02:40:44;;;;;;;6.18;3.30;;;;;;;;;;10470222;28;20355;-66
2022/05/17 02:45:46;;;;;;;9.40;3.47;;;;;;;;;;10396608;28;20301;-65
2022/05/17 02:50:48;;;;;;;6.00;3.42;;;;;;;;;;10438831;28;20056;-66
2022/05/17 02:55:52;;;;;;;4.70;3.33;;;;;;;;;;10472852;28;20056;-65
2022/05/17 03:00:55;;;;;;;4.30;3.40;;;;;;;;;;10434744;28;20061;-66
2022/05/17 03:05:59;;;;;;;6.60;3.40;;;;;;;;;;10436167;28;20041;-65
2022/05/17 03:11:04;;;;;;;9.73;3.50;;;;;;;;;;10449844;28;20336;-65
2022/05/17 03:16:07;;;;;;;4.00;3.10;;;;;;;;;;10460667;28;20048;-65
2022/05/17 03:21:09;;;;;;;9.43;3.50;;;;;;;;;;10440342;28;20065;-65
2022/05/17 03:26:13;;;;;;;7.18;3.60;;;;;;;;;;10443380;28;20065;-65
2022/05/17 03:31:15;;;;;;;6.68;3.38;;;;;;;;;;10415865;28;20045;-66
2022/05/17 03:36:18;;;;;;;6.03;3.83;;;;;;;;;;10433580;28;20054;-66
2022/05/17 03:41:22;;;;;;;6.90;3.40;;;;;;;;;;10435940;28;20099;-66
2022/05/17 03:46:24;;;;;;;8.37;2.70;;;;;;;;;;10431336;28;20111;-67
2022/05/17 03:51:27;;;;;;;9.88;2.78;;;;;;;;;;10409117;28;20121;-65
2022/05/17 03:56:30;;;;;;;19.33;3.38;;;;;;;;;;10427018;28;20073;-66
2022/05/17 04:01:33;;;;;;;6.87;3.00;;;;;;;;;;10435779;28;20081;-65
2022/05/17 04:06:36;;;;;;;10.77;3.22;;;;;;;;;;10409233;28;20073;-66
2022/05/17 04:11:40;;;;;;;10.48;3.25;;;;;;;;;;10397101;28;20364;-66
2022/05/17 04:16:42;;;;;;;6.40;2.85;;;;;;;;;;10425090;28;20213;-66
2022/05/17 04:21:45;;;;;;;6.13;2.80;;;;;;;;;;10422803;28;20088;-66
2022/05/17 04:26:48;;;;;;;;;;;;;;;;;;10398060;28;20046;-67
2022/05/17 04:31:51;;;;;;;4.32;2.25;;;;;;;;;;10423439;28;20126;-66
2022/05/17 04:36:53;;;;;;;;;;;;;;;;;;10438390;28;20041;-66
2022/05/17 04:41:56;;;;;;;8.03;3.00;;;;;;;;;;10438148;28;20093;-66
2022/05/17 04:46:59;;;;;;;6.53;2.33;;;;;;;;;;10417967;28;20050;-67
2022/05/17 04:52:02;;;;;;;5.00;2.40;;;;;;;;;;10396904;28;20077;-65
2022/05/17 04:57:06;;;;;;;2.30;1.70;;;;;;;;;;10433289;28;20041;-66
2022/05/17 05:02:09;;;;;;;2.88;1.80;;;;;;;;;;10435670;28;20053;-65
2022/05/17 05:07:12;;;;;;;7.72;1.77;;;;;;;;;;10436359;28;20044;-67
2022/05/17 05:12:16;;;;;;;5.55;2.08;;;;;;;;;;10424570;28;20271;-67
2022/05/17 05:17:18;;;;;;;3.30;1.65;;;;;;;;;;10471441;28;20289;-66
2022/05/17 05:22:20;;;;;;;10.57;2.63;;;;;;;;;;10436344;28;20092;-66
2022/05/17 05:27:24;;;;;;;4.75;1.50;;;;;;;;;;10430096;28;20060;-66
2022/05/17 05:32:26;;;;;;;6.43;1.48;;;;;;;;;;10460179;28;20100;-66
2022/05/17 05:37:28;;;;;;;2.28;1.10;;;;;;;;;;10444435;28;20073;-67
2022/05/17 05:42:32;;;;;;;3.20;1.30;;;;;;;;;;10428068;28;20225;-66
2022/05/17 05:47:34;;;;;;;7.20;1.38;;;;;;;;;;10420206;28;20112;-66
2022/05/17 05:52:37;;;;;;;10.30;1.75;;;;;;;;;;10428710;28;20164;-67
2022/05/17 05:57:41;;;;;;;1.80;1.10;;;;;;;;;;10419853;28;20042;-68
2022/05/17 06:02:44;;;;;;;1.85;1.38;;;;;;;;;;10415083;28;20078;-67
2022/05/17 06:07:47;;;;;;;4.15;1.17;;;;;;;;;;10405553;28;20049;-67
2022/05/17 06:12:50;;;;;;;3.22;1.33;;;;;;;;;;10445426;28;20087;-67
2022/05/17 06:17:53;;;;;;;2.40;1.00;;;;;;;;;;10433236;28;20041;-66
2022/05/17 06:22:55;;;;;;;5.10;1.27;;;;;;;;;;10433762;28;20328;-67
2022/05/17 06:27:58;;;;;;;4.00;1.20;;;;;;;;;;10434198;28;20072;-66
2022/05/17 06:33:01;;;;;;;5.85;1.27;;;;;;;;;;10418592;28;20053;-66
2022/05/17 06:38:04;;;;;;;1.98;1.10;;;;;;;;;;10473619;28;20251;-66
2022/05/17 06:43:08;;;;;;;1.42;0.80;;;;;;;;;;10458922;28;20053;-66
2022/05/17 06:48:11;;;;;;;3.22;1.20;;;;;;;;;;10471150;28;20079;-66
2022/05/17 06:53:13;;;;;;;1.92;0.82;;;;;;;;;;10428900;28;20058;-66
2022/05/17 06:58:17;;;;;;;2.38;0.90;;;;;;;;;;10434798;28;20228;-66
2022/05/17 07:03:21;;;;;;;1.85;0.80;;;;;;;;;;10440577;28;20061;-66
2022/05/17 07:08:24;;;;;;;2.13;0.90;;;;;;;;;;10461721;28;20275;-66
2022/05/17 07:13:27;;;;;;;4.25;1.00;;;;;;;;;;10408732;28;20069;-67
2022/05/17 07:18:30;;;;;;;1.15;0.73;;;;;;;;;;10434286;28;20037;-66
2022/05/17 07:23:32;;;;;;;4.57;0.80;;;;;;;;;;10400954;28;20214;-67
2022/05/17 07:28:42;;;;;;;4.20;0.82;;;;;;;;;;10439837;28;20072;-66
2022/05/17 07:33:45;;;;;;;1.95;1.35;;;;;;;;;;10455566;28;20352;-67
2022/05/17 07:38:47;;;;;;;4.68;0.80;;;;;;;;;;10417640;28;20348;-67
2022/05/17 07:43:51;;;;;;;4.32;0.80;;;;;;;;;;10467406;28;20280;-67
2022/05/17 07:48:53;;;;;;;3.42;0.80;;;;;;;;;;10471889;28;20056;-67
2022/05/17 07:53:55;;;;;;;3.20;0.88;;;;;;;;;;10470395;28;20091;-67
2022/05/17 07:58:59;;;;;;;1.25;0.60;;;;;;;;;;10443313;28;20285;-67
2022/05/17 08:04:02;;;;;;;5.90;0.85;;;;;;;;;;10472011;28;20090;-67
2022/05/17 08:09:05;;;;;;;2.42;0.60;;;;;;;;;;10473234;28;20114;-66
2022/05/17 08:14:09;;;;;;;1.00;0.50;;;;;;;;;;10469275;28;20087;-66
2022/05/17 08:19:11;;;;;;;0.93;0.60;;;;;;;;;;10439211;28;20121;-66
2022/05/17 08:24:13;;;;;;;1.08;0.50;;;;;;;;;;10454933;28;20089;-67
2022/05/17 08:29:17;;;;;;;1.95;0.60;;;;;;;;;;10453102;28;20376;-67
2022/05/17 08:34:20;;;;;;;2.60;0.67;;;;;;;;;;10437268;28;20073;-67
2022/05/17 08:39:22;;;;;;;5.10;1.30;;;;;;;;;;10452591;28;20057;-67
2022/05/17 08:44:37;;;;;;;1.87;1.40;;;;;;;;;;10399554;28;20068;-67
2022/05/17 08:49:46;;;;;;;4.28;1.25;;;;;;;;;;10477867;28;20062;-67
2022/05/17 08:54:54;;;;;;;2.13;1.00;;;;;;;;;;10474015;28;20068;-67
2022/05/17 09:00:04;;;;;;;6.65;1.50;;;;;;;;;;10473066;28;20060;-68
2022/05/17 09:05:15;;;;;;;2.92;2.63;;;;;;;;;;10441057;28;20061;-68
2022/05/17 09:10:27;;;;;;;3.40;2.00;;;;;;;;;;10473961;28;20064;-67
2022/05/17 09:15:31;;;;;;;4.38;0.70;;;;;;;;;;10452216;28;20041;-67
2022/05/17 09:20:37;;;;;;;3.33;0.50;;;;;;;;;;10415767;28;20054;-68
2022/05/17 09:26:04;;;;;;;3.30;0.60;;;;;;;;;;10395153;28;20065;-67
2022/05/17 09:31:13;;;;;;;2.83;0.70;;;;;;;;;;10456856;28;20076;-66
2022/05/17 09:36:20;;;;;;;1.47;0.70;;;;;;;;;;10425607;28;20554;-66
2022/05/17 09:41:25;;;;;;;13.35;1.52;;;;;;;;;;10472145;28;20051;-66
2022/05/17 09:46:32;;;;;;;3.30;0.90;;;;;;;;;;10435518;28;20049;-66
2022/05/17 09:56:55;;;;;;;1.60;0.93;;;;;;;;;;10450027;28;20049;-67
2022/05/17 10:01:59;;;;;;;7.72;1.30;;;;;;;;;;10466117;28;20246;-66
2022/05/17 10:07:15;;;;;;;4.40;1.42;;;;;;;;;;10453473;28;20398;-67
2022/05/17 10:12:29;;;;;;;3.42;1.17;;;;;;;;;;10435231;28;20293;-66
2022/05/17 10:17:35;;;;;;;;;;;;;;;;;;10464347;28;20221;-67
2022/05/17 10:22:44;;;;;;;2.28;0.88;;;;;;;;;;10447240;28;20108;-66
2022/05/17 10:27:51;;;;;;;1.75;0.80;;;;;;;;;;10472745;28;20293;-67
2022/05/17 10:32:59;;;;;;;4.75;0.85;;;;;;;;;;10450517;28;20140;-67
2022/05/17 10:38:07;;;;;;;2.08;1.00;;;;;;;;;;10465319;28;20033;-66
2022/05/17 10:43:09;;;;;;;1.90;0.90;;;;;;;;;;10442426;28;20056;-67
2022/05/17 10:48:26;;;;;;;4.50;0.97;;;;;;;;;;10473671;28;20072;-66
2022/05/17 10:53:44;;;;;;;2.78;0.80;;;;;;;;;;10460633;28;20336;-66
2022/05/17 10:58:55;;;;;;;3.75;0.90;;;;;;;;;;10433214;28;20077;-67
2022/05/17 11:04:31;;;;;;;4.28;1.00;;;;;;;;;;10448398;28;20084;-67
2022/05/17 11:09:46;;;;;;;2.25;0.90;;;;;;;;;;10474962;28;20336;-66
2022/05/17 11:14:51;;;;;;;5.95;1.63;;;;;;;;;;10434654;28;20049;-66
2022/05/17 11:20:04;;;;;;;4.80;1.10;;;;;;;;;;10469169;28;20332;-66
2022/05/17 11:25:39;;;;;;;5.07;1.85;;;;;;;;;;10455261;28;20063;-67
2022/05/17 11:30:49;;;;;;;1.88;0.68;;;;;;;;;;10431205;28;20045;-67
2022/05/17 11:35:55;;;;;;;8.70;2.00;;;;;;;;;;10452816;28;20058;-66
2022/05/17 11:40:58;;;;;;;12.38;1.98;;;;;;;;;;10394684;28;20099;-66
2022/05/17 11:46:03;;;;;;;8.07;1.60;;;;;;;;;;10454548;28;20050;-66
2022/05/17 11:51:07;;;;;;;9.45;1.35;;;;;;;;;;10393730;28;20037;-65
2022/05/17 11:56:33;;;;;;;3.60;0.95;;;;;;;;;;10453232;28;20089;-67
2022/05/17 12:01:50;;;;;;;2.47;0.75;;;;;;;;;;10397504;28;20524;-69
2022/05/17 12:07:19;;;;;;;8.88;1.90;;;;;;;;;;10450295;28;20045;-67
2022/05/17 12:12:48;;;;;;;3.38;0.90;;;;;;;;;;10453194;28;20262;-66
2022/05/17 12:18:01;;;;;;;2.88;0.75;;;;;;;;;;10400728;28;20058;-67
2022/05/17 12:23:09;;;;;;;3.15;1.00;;;;;;;;;;10426776;28;20092;-66
2022/05/17 12:28:19;;;;;;;8.23;1.00;;;;;;;;;;10493891;28;20048;-67
2022/05/17 12:33:23;;;;;;;7.60;1.00;;;;;;;;;;10461115;28;20068;-68
2022/05/17 12:43:52;;;;;;;5.55;1.20;;;;;;;;;;10458826;28;19940;-66
2022/05/17 12:48:55;;;;;;;7.55;4.20;;;;;;;;;;10477576;28;20071;-67
2022/05/17 12:54:03;;;;;;;12.95;1.20;;;;;;;;;;10475740;28;20056;-68
2022/05/17 12:59:09;;;;;;;16.75;11.20;;;;;;;;;;10472663;28;20052;-67
2022/05/17 13:04:13;;;;;;;5.60;1.20;;;;;;;;;;10459751;28;20053;-68
2022/05/17 13:09:20;;;;;;;9.95;1.02;;;;;;;;;;10467731;28;20237;-67
2022/05/17 13:14:27;;;;;;;6.18;1.30;;;;;;;;;;10448987;28;20067;-67
2022/05/17 13:19:30;;;;;;;1.92;1.00;;;;;;;;;;10438144;28;20118;-69
2022/05/17 13:24:43;;;;;;;7.53;2.85;;;;;;;;;;10472055;28;20057;-70
2022/05/17 13:29:53;;;;;;;2.93;0.80;;;;;;;;;;10492644;28;20041;-71
2022/05/17 13:35:13;;;;;;;2.58;1.30;;;;;;;;;;10439270;28;20245;-71
2022/05/17 13:40:35;;;;;;;11.60;1.35;;;;;;;;;;10453615;28;20391;-69
2022/05/17 13:45:38;;;;;;;9.00;0.95;;;;;;;;;;10473732;28;20100;-70
2022/05/17 13:50:41;;;;;;;2.17;1.00;;;;;;;;;;10460982;28;20049;-69
2022/05/17 13:55:45;;;;;;;10.30;1.60;;;;;;;;;;10446683;28;20306;-69
2022/05/17 14:00:59;;;;;;;1.48;0.90;;;;;;;;;;10429345;28;20284;-70
2022/05/17 14:06:12;;;;;;;4.85;0.98;;;;;;;;;;10458199;28;20048;-70
2022/05/17 14:16:48;;;;;;;2.65;0.82;;;;;;;;;;10441960;28;20061;-70
2022/05/17 14:21:53;;;;;;;3.72;0.90;;;;;;;;;;10430446;28;20073;-70
2022/05/17 14:26:58;;;;;;;15.15;1.70;;;;;;;;;;10454944;28;20069;-67
2022/05/17 14:32:02;;;;;;;3.72;1.00;;;;;;;;;;10463456;28;20073;-70
2022/05/17 14:37:05;;;;;;;4.57;1.10;;;;;;;;;;10456007;28;20045;-70
2022/05/17 14:42:13;;;;;;;3.35;0.85;;;;;;;;;;10440298;28;20065;-70
2022/05/17 14:47:22;;;;;;;4.55;0.93;;;;;;;;;;10460339;28;20052;-69
2022/05/17 14:52:24;;;;;;;5.10;1.00;;;;;;;;;;10446074;28;20041;-70
2022/05/17 14:57:28;;;;;;;10.65;1.40;;;;;;;;;;10460298;28;20033;-68
2022/05/17 15:02:31;;;;;;;3.80;1.27;;;;;;;;;;10444670;28;20084;-69
2022/05/17 15:07:37;;;;;;;5.10;1.00;;;;;;;;;;10450049;28;20087;-71
2022/05/17 15:12:41;;;;;;;7.15;1.50;;;;;;;;;;10427561;28;20052;-69
2022/05/17 15:17:45;;;;;;;9.20;1.40;;;;;;;;;;10459799;28;20128;-72
2022/05/17 15:22:48;;;;;;;4.38;1.17;;;;;;;;;;10438795;28;20409;-70
2022/05/17 15:27:53;;;;;;;3.75;1.05;;;;;;;;;;10432090;28;20049;-71
2022/05/17 15:32:56;;;;;;;10.18;1.58;;;;;;;;;;10440152;28;20075;-70
2022/05/17 15:37:59;;;;;;;3.50;1.15;;;;;;;;;;10452838;28;20351;-73
2022/05/17 15:43:03;;;;;;;14.68;1.60;;;;;;;;;;10446322;28;20088;-72
2022/05/17 15:53:29;;;;;;;2.10;1.27;;;;;;;;;;10420049;28;20048;-70
2022/05/17 15:58:34;;;;;;;7.93;1.80;;;;;;;;;;10477445;28;20397;-70
2022/05/17 16:03:39;;;;;;;9.30;1.30;;;;;;;;;;10448652;28;20072;-68
2022/05/17 16:08:43;;;;;;;4.88;1.17;;;;;;;;;;10476361;28;20056;-68
2022/05/17 16:13:48;;;;;;;13.02;1.73;;;;;;;;;;10443196;28;20084;-69
2022/05/17 16:18:53;;;;;;;11.45;1.40;;;;;;;;;;10461650;28;20060;-69
2022/05/17 16:23:56;;;;;;;2.67;1.17;;;;;;;;;;10491185;28;20347;-69
2022/05/17 16:29:00;;;;;;;2.67;1.33;;;;;;;;;;10461087;28;20041;-68
2022/05/17 16:34:02;;;;;;;7.50;1.33;;;;;;;;;;10440975;28;20049;-68
2022/05/17 16:39:05;;;;;;;15.73;1.50;;;;;;;;;;10474093;28;20049;-67
2022/05/17 16:44:09;;;;;;;6.57;1.50;;;;;;;;;;10474040;28;20052;-69
2022/05/17 16:49:12;;;;;;;5.55;1.55;;;;;;;;;;10478519;28;20037;-69
2022/05/17 16:54:17;;;;;;;2.37;1.00;;;;;;;;;;10445129;28;20056;-69
2022/05/17 16:59:21;;;;;;;6.30;1.30;;;;;;;;;;10410866;28;20052;-67
2022/05/17 17:04:24;;;;;;;4.60;1.43;;;;;;;;;;10452646;28;20052;-68
2022/05/17 17:09:27;;;;;;;5.00;1.40;;;;;;;;;;10475436;28;20049;-68
2022/05/17 17:14:31;;;;;;;3.30;1.00;;;;;;;;;;10437495;28;20050;-66
2022/05/17 17:19:33;;;;;;;4.53;1.45;;;;;;;;;;10439132;28;20049;-69
2022/05/17 17:24:36;;;;;;;12.00;2.25;;;;;;;;;;10445290;28;20229;-68
2022/05/17 17:29:40;;;;;;;5.45;1.50;;;;;;;;;;10439312;28;20309;-66
2022/05/17 17:40:02;;;;;;;4.50;1.25;;;;;;;;;;10469728;28;20046;-68
2022/05/17 17:45:09;;;;;;;6.63;1.30;;;;;;;;;;10408897;28;20053;-67
2022/05/17 17:50:11;;;;;;;5.30;1.27;;;;;;;;;;10472262;28;20045;-68
2022/05/17 17:55:14;;;;;;;5.93;1.40;;;;;;;;;;10439281;28;20052;-69
2022/05/17 18:00:19;;;;;;;3.45;1.20;;;;;;;;;;10445798;28;20123;-68
2022/05/17 18:05:22;;;;;;;;;;;;;;;;;;10441681;28;20088;-66
2022/05/17 18:10:24;;;;;;;2.17;1.30;;;;;;;;;;10445565;28;19924;-68
2022/05/17 18:15:28;;;;;;;7.47;1.75;;;;;;;;;;10466082;28;20333;-68
2022/05/17 18:20:30;;;;;;;4.90;1.85;;;;;;;;;;10451229;28;20073;-68
2022/05/17 18:25:34;;;;;;;5.13;1.20;;;;;;;;;;10433628;28;20040;-67
2022/05/17 18:30:39;;;;;;;9.38;1.52;;;;;;;;;;10433193;28;20057;-68
2022/05/17 18:35:42;;;;;;;6.15;1.10;;;;;;;;;;10477005;28;20347;-70
2022/05/17 18:40:45;;;;;;;1.33;1.23;;;;;;;;;;10450444;28;20047;-67
2022/05/17 18:45:50;;;;;;;2.35;1.33;;;;;;;;;;10454472;28;20060;-68
2022/05/17 18:50:52;;;;;;;9.68;1.60;;;;;;;;;;10471648;28;20049;-66
2022/05/17 18:55:56;;;;;;;2.85;1.52;;;;;;;;;;10474625;28;20063;-66
2022/05/17 19:01:00;;;;;;;5.97;1.60;;;;;;;;;;10461817;28;20100;-67
2022/05/17 19:06:06;;;;;;;15.17;6.27;;;;;;;;;;10430618;28;20061;-67
2022/05/17 19:16:33;;;;;;;3.45;1.90;;;;;;;;;;10473524;28;20046;-67
2022/05/17 19:21:39;;;;;;;9.65;4.15;;;;;;;;;;10470767;28;20068;-68
2022/05/17 19:26:44;;;;;;;2.47;1.67;;;;;;;;;;10473015;28;20044;-68
2022/05/17 19:31:50;;;;;;;4.35;1.80;;;;;;;;;;10459363;28;20046;-66
2022/05/17 19:42:16;;;;;;;2.10;1.70;;;;;;;;;;10437775;28;20029;-66
2022/05/17 19:47:21;;;;;;;5.80;1.55;;;;;;;;;;10455223;28;20052;-67
2022/05/17 19:52:26;;;;;;;8.02;2.80;;;;;;;;;;10456198;28;20061;-66
2022/05/17 19:57:28;;;;;;;7.10;2.33;;;;;;;;;;10430018;28;20238;-67
2022/05/17 20:02:32;;;;;;;4.68;1.77;;;;;;;;;;10447857;28;20120;-67
2022/05/17 20:07:37;;;;;;;2.65;1.67;;;;;;;;;;10452563;28;20053;-68
2022/05/17 20:12:49;;;;;;;5.35;1.80;;;;;;;;;;10450497;28;20045;-67
2022/05/17 20:17:56;;;;;;;6.13;2.00;;;;;;;;;;10434635;28;20044;-68
2022/05/17 20:23:04;;;;;;;4.32;1.50;;;;;;;;;;10456749;28;20265;-67
2022/05/17 20:28:07;;;;;;;4.40;1.60;;;;;;;;;;10445015;28;20299;-66
2022/05/17 20:33:14;;;;;;;5.10;1.50;;;;;;;;;;10436392;28;20364;-68
2022/05/17 20:38:16;;;;;;;2.33;1.48;;;;;;;;;;10421735;28;20343;-67
2022/05/17 20:43:31;;;;;;;1.75;1.50;;;;;;;;;;10423691;28;20356;-68
2022/05/17 20:48:36;;;;;;;2.58;1.50;;;;;;;;;;10449990;28;20344;-67
2022/05/17 20:53:40;;;;;;;3.75;1.50;;;;;;;;;;10422924;28;20052;-68
2022/05/17 20:58:42;;;;;;;1.60;1.50;;;;;;;;;;10432170;28;20057;-67
2022/05/17 21:03:47;;;;;;;4.95;1.85;;;;;;;;;;10410546;28;20070;-67
2022/05/17 21:08:51;;;;;;;5.00;1.80;;;;;;;;;;10430953;28;20049;-67
2022/05/17 21:13:54;;;;;;;9.05;2.15;;;;;;;;;;10435083;28;20037;-67
2022/05/17 21:18:57;;;;;;;4.28;1.95;;;;;;;;;;10423429;28;20436;-66
2022/05/17 21:23:59;;;;;;;3.25;2.00;;;;;;;;;;10429133;28;20088;-67
2022/05/17 21:29:02;;;;;;;2.67;1.92;;;;;;;;;;10458043;28;20083;-67
2022/05/17 21:34:06;;;;;;;3.90;2.08;;;;;;;;;;10417375;28;20076;-66
2022/05/17 21:39:10;;;;;;;3.27;1.80;;;;;;;;;;10408673;28;20069;-66
2022/05/17 21:44:12;;;;;;;2.83;1.70;;;;;;;;;;10396527;28;20064;-67
2022/05/17 21:49:16;;;;;;;2.53;1.70;;;;;;;;;;10454771;28;20057;-67
2022/05/17 21:54:18;;;;;;;3.55;1.80;;;;;;;;;;10409646;28;20065;-66
2022/05/17 21:59:26;;;;;;;1.98;1.60;;;;;;;;;;10404838;28;20104;-67
2022/05/17 22:04:29;;;;;;;2.10;1.80;;;;;;;;;;10481955;28;20067;-67
2022/05/17 22:09:31;;;;;;;1.90;1.80;;;;;;;;;;10462290;28;20041;-66
2022/05/17 22:14:35;;;;;;;2.95;2.15;;;;;;;;;;10464339;28;20065;-66
2022/05/17 22:19:39;;;;;;;3.65;2.00;;;;;;;;;;10406667;28;20044;-67
2022/05/17 22:24:41;;;;;;;9.38;2.50;;;;;;;;;;10393218;28;20057;-66
2022/05/17 22:29:44;;;;;;;4.68;2.05;;;;;;;;;;10407455;28;20379;-68
2022/05/17 22:34:47;;;;;;;2.80;2.40;;;;;;;;;;10392662;28;20053;-67
2022/05/17 22:39:49;;;;;;;3.85;2.10;;;;;;;;;;10431328;28;20087;-66
2022/05/17 22:50:14;;;;;;;3.97;2.25;;;;;;;;;;10471242;28;20099;-66
2022/05/17 22:55:16;;;;;;;4.30;2.20;;;;;;;;;;10432942;28;20337;-66
2022/05/17 23:00:19;;;;;;;2.13;1.85;;;;;;;;;;10456719;28;20061;-67
2022/05/17 23:05:23;;;;;;;4.57;2.20;;;;;;;;;;10433820;28;20069;-67
2022/05/17 23:10:26;;;;;;;2.80;2.25;;;;;;;;;;10415416;28;20065;-67
2022/05/17 23:15:29;;;;;;;5.72;2.53;;;;;;;;;;10454993;28;20053;-67
2022/05/17 23:20:33;;;;;;;4.57;2.10;;;;;;;;;;10432857;28;20225;-68
2022/05/17 23:30:58;;;;;;;4.15;2.30;;;;;;;;;;10430226;28;20115;-68
2022/05/17 23:36:02;;;;;;;6.38;2.42;;;;;;;;;;10432510;28;20034;-66
2022/05/17 23:41:06;;;;;;;4.43;2.13;;;;;;;;;;10435830;28;20378;-67
2022/05/17 23:46:09;;;;;;;2.75;2.08;;;;;;;;;;10472259;28;20041;-67
2022/05/17 23:51:13;;;;;;;6.70;2.45;;;;;;;;;;10471689;28;20041;-67
2022/05/17 23:56:16;;;;;;;3.05;2.03;;;;;;;;;;10468974;28;20050;-66
